sensor_id;sensor_type;location;lat;lon;timestamp;pressure;altitude;pressure_sealevel;temperature;humidity
63691;BME280;49837;57.280;27.070;2023-01-28T00:00:33;101286.86;;;-4.73;92.3
63691;BME280;49837;57.280;27.070;2023-01-28T00:01:33;101286.11;;;-4.67;92.5
63691;BME280;49837;57.280;27.070;2023-01-28T00:02:36;101289.92;;;-4.75;92.48
63691;BME280;49837;57.280;27.070;2023-01-28T00:03:34;101290.33;;;-4.83;92.41
63691;BME280;49837;57.280;27.070;2023-01-28T00:04:34;101284.2;;;-4.84;92.53
63691;BME280;49837;57.280;27.070;2023-01-28T00:05:35;101282.09;;;-4.84;92.42
63691;BME280;49837;57.280;27.070;2023-01-28T00:06:35;101281.26;;;-4.79;92.65
63691;BME280;49837;57.280;27.070;2023-01-28T00:07:36;101282.91;;;-4.83;92.64
63691;BME280;49837;57.280;27.070;2023-01-28T00:08:36;101278.84;;;-4.8;92.71
63691;BME280;49837;57.280;27.070;2023-01-28T00:09:36;101279.31;;;-4.78;92.82
63691;BME280;49837;57.280;27.070;2023-01-28T00:10:37;101275.67;;;-4.76;92.91
63691;BME280;49837;57.280;27.070;2023-01-28T00:11:37;101278.11;;;-4.76;92.89
63691;BME280;49837;57.280;27.070;2023-01-28T00:12:38;101275.25;;;-4.69;92.66
63691;BME280;49837;57.280;27.070;2023-01-28T00:13:38;101274.11;;;-4.69;92.27
63691;BME280;49837;57.280;27.070;2023-01-28T00:14:38;101273.85;;;-4.68;92.05
63691;BME280;49837;57.280;27.070;2023-01-28T00:15:39;101272.7;;;-4.73;92.1
63691;BME280;49837;57.280;27.070;2023-01-28T00:16:39;101278.66;;;-4.78;92.32
63691;BME280;49837;57.280;27.070;2023-01-28T00:17:40;101280.16;;;-4.75;92.57
63691;BME280;49837;57.280;27.070;2023-01-28T00:18:40;101282.08;;;-4.74;92.47
63691;BME280;49837;57.280;27.070;2023-01-28T00:19:41;101282.0;;;-4.71;92.43
63691;BME280;49837;57.280;27.070;2023-01-28T00:20:41;101281.59;;;-4.71;92.32
63691;BME280;49837;57.280;27.070;2023-01-28T00:21:41;101282.52;;;-4.78;92.17
63691;BME280;49837;57.280;27.070;2023-01-28T00:22:46;101279.7;;;-4.83;92.23
63691;BME280;49837;57.280;27.070;2023-01-28T00:23:47;101282.45;;;-4.81;92.2
63691;BME280;49837;57.280;27.070;2023-01-28T00:24:47;101282.05;;;-4.85;92.04
63691;BME280;49837;57.280;27.070;2023-01-28T00:25:47;101284.05;;;-4.83;91.98
63691;BME280;49837;57.280;27.070;2023-01-28T00:26:48;101282.04;;;-4.88;91.83
63691;BME280;49837;57.280;27.070;2023-01-28T00:27:49;101278.43;;;-4.9;91.63
63691;BME280;49837;57.280;27.070;2023-01-28T00:28:49;101278.51;;;-4.98;91.54
63691;BME280;49837;57.280;27.070;2023-01-28T00:29:49;101276.44;;;-4.97;91.66
63691;BME280;49837;57.280;27.070;2023-01-28T00:30:49;101279.9;;;-4.94;91.79
63691;BME280;49837;57.280;27.070;2023-01-28T00:31:50;101279.9;;;-4.94;91.72
63691;BME280;49837;57.280;27.070;2023-01-28T00:32:52;101280.16;;;-4.87;91.81
63691;BME280;49837;57.280;27.070;2023-01-28T00:33:51;101278.3;;;-4.85;91.81
63691;BME280;49837;57.280;27.070;2023-01-28T00:34:51;101279.23;;;-4.86;92.01
63691;BME280;49837;57.280;27.070;2023-01-28T00:35:58;101277.78;;;-4.9;91.99
63691;BME280;49837;57.280;27.070;2023-01-28T00:36:56;101275.84;;;-4.97;92.18
63691;BME280;49837;57.280;27.070;2023-01-28T00:37:57;101273.2;;;-4.96;92.39
63691;BME280;49837;57.280;27.070;2023-01-28T00:38:58;101276.31;;;-4.9;92.65
63691;BME280;49837;57.280;27.070;2023-01-28T00:39:58;101271.44;;;-4.87;92.7
63691;BME280;49837;57.280;27.070;2023-01-28T00:41:59;101272.16;;;-4.8;92.98
63691;BME280;49837;57.280;27.070;2023-01-28T00:42:59;101271.24;;;-4.71;92.95
63691;BME280;49837;57.280;27.070;2023-01-28T00:44:00;101273.36;;;-4.71;92.71
63691;BME280;49837;57.280;27.070;2023-01-28T00:45:00;101270.67;;;-4.89;92.61
63691;BME280;49837;57.280;27.070;2023-01-28T00:46:00;101271.77;;;-4.94;92.64
63691;BME280;49837;57.280;27.070;2023-01-28T00:47:01;101269.36;;;-4.94;92.78
63691;BME280;49837;57.280;27.070;2023-01-28T00:48:01;101268.25;;;-4.95;92.84
63691;BME280;49837;57.280;27.070;2023-01-28T00:49:02;101269.36;;;-4.94;93.03
63691;BME280;49837;57.280;27.070;2023-01-28T00:50:03;101269.09;;;-4.93;93.22
63691;BME280;49837;57.280;27.070;2023-01-28T00:51:03;101268.7;;;-4.94;93.13
63691;BME280;49837;57.280;27.070;2023-01-28T00:52:03;101267.3;;;-4.93;93.05
63691;BME280;49837;57.280;27.070;2023-01-28T00:53:04;101267.0;;;-4.91;93.16
63691;BME280;49837;57.280;27.070;2023-01-28T00:54:04;101268.55;;;-4.94;92.9
63691;BME280;49837;57.280;27.070;2023-01-28T00:55:05;101264.48;;;-4.91;93.07
63691;BME280;49837;57.280;27.070;2023-01-28T00:56:06;101270.02;;;-4.89;93.01
63691;BME280;49837;57.280;27.070;2023-01-28T00:57:05;101261.45;;;-4.88;93.27
63691;BME280;49837;57.280;27.070;2023-01-28T00:58:05;101267.09;;;-4.89;93.39
63691;BME280;49837;57.280;27.070;2023-01-28T00:59:06;101264.61;;;-4.93;93.51
63691;BME280;49837;57.280;27.070;2023-01-28T01:00:08;101261.8;;;-4.94;93.08
63691;BME280;49837;57.280;27.070;2023-01-28T01:01:09;101258.02;;;-4.96;92.89
63691;BME280;49837;57.280;27.070;2023-01-28T01:02:08;101256.45;;;-4.95;92.66
63691;BME280;49837;57.280;27.070;2023-01-28T01:03:08;101260.42;;;-4.89;92.57
63691;BME280;49837;57.280;27.070;2023-01-28T01:04:09;101256.53;;;-4.84;92.58
63691;BME280;49837;57.280;27.070;2023-01-28T01:05:09;101253.66;;;-4.82;92.44
63691;BME280;49837;57.280;27.070;2023-01-28T01:06:13;101253.49;;;-4.83;92.4
63691;BME280;49837;57.280;27.070;2023-01-28T01:07:11;101262.58;;;-4.85;92.67
63691;BME280;49837;57.280;27.070;2023-01-28T01:08:12;101256.06;;;-4.85;92.71
63691;BME280;49837;57.280;27.070;2023-01-28T01:09:12;101252.12;;;-4.79;92.84
63691;BME280;49837;57.280;27.070;2023-01-28T01:10:15;101254.98;;;-4.77;92.78
63691;BME280;49837;57.280;27.070;2023-01-28T01:11:13;101256.88;;;-4.79;92.86
63691;BME280;49837;57.280;27.070;2023-01-28T01:12:14;101254.52;;;-4.78;92.95
63691;BME280;49837;57.280;27.070;2023-01-28T01:13:14;101254.03;;;-4.75;93.06
63691;BME280;49837;57.280;27.070;2023-01-28T01:14:15;101256.71;;;-4.87;92.86
63691;BME280;49837;57.280;27.070;2023-01-28T01:15:16;101254.14;;;-4.94;93.12
63691;BME280;49837;57.280;27.070;2023-01-28T01:16:15;101250.8;;;-4.94;93.34
63691;BME280;49837;57.280;27.070;2023-01-28T01:17:16;101253.27;;;-4.92;93.44
63691;BME280;49837;57.280;27.070;2023-01-28T01:18:16;101253.92;;;-4.92;92.98
63691;BME280;49837;57.280;27.070;2023-01-28T01:19:17;101251.83;;;-5.0;92.54
63691;BME280;49837;57.280;27.070;2023-01-28T01:20:20;101246.99;;;-5.0;92.56
63691;BME280;49837;57.280;27.070;2023-01-28T01:21:21;101249.39;;;-5.03;92.6
63691;BME280;49837;57.280;27.070;2023-01-28T01:22:20;101245.84;;;-5.04;92.96
63691;BME280;49837;57.280;27.070;2023-01-28T01:23:20;101242.77;;;-5.0;93.21
63691;BME280;49837;57.280;27.070;2023-01-28T01:24:21;101242.85;;;-4.96;93.23
63691;BME280;49837;57.280;27.070;2023-01-28T01:25:21;101243.36;;;-4.98;93.28
63691;BME280;49837;57.280;27.070;2023-01-28T01:26:22;101244.7;;;-4.98;93.3
63691;BME280;49837;57.280;27.070;2023-01-28T01:27:22;101241.02;;;-4.97;93.33
63691;BME280;49837;57.280;27.070;2023-01-28T01:28:22;101241.22;;;-4.89;93.24
63691;BME280;49837;57.280;27.070;2023-01-28T01:29:23;101236.09;;;-4.86;92.87
63691;BME280;49837;57.280;27.070;2023-01-28T01:30:23;101234.16;;;-4.95;92.53
63691;BME280;49837;57.280;27.070;2023-01-28T01:31:24;101240.54;;;-4.99;92.63
63691;BME280;49837;57.280;27.070;2023-01-28T01:32:27;101240.6;;;-5.0;92.6
63691;BME280;49837;57.280;27.070;2023-01-28T01:33:27;101235.38;;;-4.98;92.75
63691;BME280;49837;57.280;27.070;2023-01-28T01:34:26;101235.84;;;-4.97;92.79
63691;BME280;49837;57.280;27.070;2023-01-28T01:35:27;101235.81;;;-4.88;92.93
63691;BME280;49837;57.280;27.070;2023-01-28T01:36:27;101235.88;;;-4.87;92.68
63691;BME280;49837;57.280;27.070;2023-01-28T01:37:28;101234.09;;;-4.82;92.68
63691;BME280;49837;57.280;27.070;2023-01-28T01:38:28;101238.55;;;-4.89;92.51
63691;BME280;49837;57.280;27.070;2023-01-28T01:39:28;101236.89;;;-4.94;92.07
63691;BME280;49837;57.280;27.070;2023-01-28T01:40:29;101234.48;;;-5.02;91.71
63691;BME280;49837;57.280;27.070;2023-01-28T01:41:31;101233.34;;;-5.02;91.81
63691;BME280;49837;57.280;27.070;2023-01-28T01:42:31;101235.16;;;-5.0;91.95
63691;BME280;49837;57.280;27.070;2023-01-28T01:45:34;101225.47;;;-5.0;92.6
63691;BME280;49837;57.280;27.070;2023-01-28T01:48:41;101218.55;;;-4.9;92.63
63691;BME280;49837;57.280;27.070;2023-01-28T01:49:41;101214.83;;;-4.88;92.89
63691;BME280;49837;57.280;27.070;2023-01-28T01:51:47;101214.8;;;-4.9;93.19
63691;BME280;49837;57.280;27.070;2023-01-28T01:52:48;101212.13;;;-4.88;93.42
63691;BME280;49837;57.280;27.070;2023-01-28T01:53:51;101210.25;;;-4.85;93.37
63691;BME280;49837;57.280;27.070;2023-01-28T01:54:53;101211.06;;;-4.85;93.29
63691;BME280;49837;57.280;27.070;2023-01-28T01:55:59;101206.88;;;-4.89;93.38
63691;BME280;49837;57.280;27.070;2023-01-28T01:56:59;101202.86;;;-5.0;93.14
63691;BME280;49837;57.280;27.070;2023-01-28T01:58:02;101204.16;;;-4.92;93.04
63691;BME280;49837;57.280;27.070;2023-01-28T01:59:01;101202.58;;;-4.87;92.93
63691;BME280;49837;57.280;27.070;2023-01-28T02:00:04;101195.77;;;-5.02;92.8
63691;BME280;49837;57.280;27.070;2023-01-28T02:01:03;101195.91;;;-5.1;92.95
63691;BME280;49837;57.280;27.070;2023-01-28T02:02:06;101194.66;;;-5.05;93.32
63691;BME280;49837;57.280;27.070;2023-01-28T02:03:04;101192.26;;;-5.02;93.49
63691;BME280;49837;57.280;27.070;2023-01-28T02:05:08;101189.85;;;-5.03;93.22
63691;BME280;49837;57.280;27.070;2023-01-28T02:06:08;101194.22;;;-5.01;93.15
63691;BME280;49837;57.280;27.070;2023-01-28T02:07:09;101192.33;;;-4.98;93.19
63691;BME280;49837;57.280;27.070;2023-01-28T02:08:09;101191.66;;;-4.97;92.95
63691;BME280;49837;57.280;27.070;2023-01-28T02:10:12;101186.16;;;-4.9;92.93
63691;BME280;49837;57.280;27.070;2023-01-28T02:11:13;101185.48;;;-4.92;93.19
63691;BME280;49837;57.280;27.070;2023-01-28T02:12:19;101185.73;;;-4.92;93.36
63691;BME280;49837;57.280;27.070;2023-01-28T02:13:20;101185.97;;;-4.89;93.8
63691;BME280;49837;57.280;27.070;2023-01-28T02:14:20;101185.45;;;-4.83;93.79
63691;BME280;49837;57.280;27.070;2023-01-28T02:15:23;101185.98;;;-4.79;93.69
63691;BME280;49837;57.280;27.070;2023-01-28T02:16:23;101183.77;;;-4.84;93.64
63691;BME280;49837;57.280;27.070;2023-01-28T02:17:23;101183.12;;;-4.89;93.71
63691;BME280;49837;57.280;27.070;2023-01-28T02:18:24;101189.61;;;-4.91;93.76
63691;BME280;49837;57.280;27.070;2023-01-28T02:19:28;101186.8;;;-4.87;94.0
63691;BME280;49837;57.280;27.070;2023-01-28T02:24:50;101180.12;;;-4.95;93.54
63691;BME280;49837;57.280;27.070;2023-01-28T02:29:58;101173.22;;;-5.09;93.21
63691;BME280;49837;57.280;27.070;2023-01-28T02:31:00;101173.93;;;-5.04;93.44
63691;BME280;49837;57.280;27.070;2023-01-28T02:32:19;101176.64;;;-5.05;93.67
63691;BME280;49837;57.280;27.070;2023-01-28T02:32:59;101176.31;;;-5.02;93.8
63691;BME280;49837;57.280;27.070;2023-01-28T02:36:15;101179.62;;;-5.04;93.95
63691;BME280;49837;57.280;27.070;2023-01-28T02:40:22;101179.15;;;-5.1;94.12
63691;BME280;49837;57.280;27.070;2023-01-28T02:41:28;101179.61;;;-5.09;93.99
63691;BME280;49837;57.280;27.070;2023-01-28T02:42:24;101183.8;;;-5.1;93.61
63691;BME280;49837;57.280;27.070;2023-01-28T02:43:36;101183.36;;;-5.09;93.44
63691;BME280;49837;57.280;27.070;2023-01-28T02:44:24;101182.45;;;-5.13;93.22
63691;BME280;49837;57.280;27.070;2023-01-28T02:45:37;101186.05;;;-5.12;93.17
63691;BME280;49837;57.280;27.070;2023-01-28T02:46:34;101178.5;;;-5.14;93.17
63691;BME280;49837;57.280;27.070;2023-01-28T02:47:33;101182.17;;;-5.05;93.27
63691;BME280;49837;57.280;27.070;2023-01-28T02:48:33;101181.97;;;-5.02;93.03
63691;BME280;49837;57.280;27.070;2023-01-28T02:50:53;101180.15;;;-5.11;92.67
63691;BME280;49837;57.280;27.070;2023-01-28T02:53:58;101181.48;;;-5.04;92.79
63691;BME280;49837;57.280;27.070;2023-01-28T02:55:01;101181.71;;;-5.06;93.07
63691;BME280;49837;57.280;27.070;2023-01-28T03:04:09;101184.3;;;-5.11;93.34
63691;BME280;49837;57.280;27.070;2023-01-28T03:06:09;101183.22;;;-5.14;93.44
63691;BME280;49837;57.280;27.070;2023-01-28T03:07:06;101183.22;;;-5.14;93.35
63691;BME280;49837;57.280;27.070;2023-01-28T03:08:07;101192.05;;;-5.13;93.29
63691;BME280;49837;57.280;27.070;2023-01-28T03:09:09;101189.59;;;-5.08;93.18
63691;BME280;49837;57.280;27.070;2023-01-28T03:10:12;101186.7;;;-5.04;93.09
63691;BME280;49837;57.280;27.070;2023-01-28T03:11:12;101186.49;;;-5.05;93.08
63691;BME280;49837;57.280;27.070;2023-01-28T03:12:19;101188.06;;;-5.03;92.98
63691;BME280;49837;57.280;27.070;2023-01-28T03:13:13;101187.13;;;-5.05;93.15
63691;BME280;49837;57.280;27.070;2023-01-28T03:14:15;101184.89;;;-5.13;93.16
63691;BME280;49837;57.280;27.070;2023-01-28T03:15:19;101189.45;;;-5.12;93.31
63691;BME280;49837;57.280;27.070;2023-01-28T03:16:17;101188.48;;;-5.12;93.42
63691;BME280;49837;57.280;27.070;2023-01-28T03:18:22;101196.09;;;-5.08;93.41
63691;BME280;49837;57.280;27.070;2023-01-28T03:19:22;101192.12;;;-5.11;93.33
63691;BME280;49837;57.280;27.070;2023-01-28T03:20:24;101196.53;;;-5.09;93.31
63691;BME280;49837;57.280;27.070;2023-01-28T03:21:32;101195.06;;;-5.12;93.29
63691;BME280;49837;57.280;27.070;2023-01-28T03:22:28;101193.95;;;-5.14;93.45
63691;BME280;49837;57.280;27.070;2023-01-28T03:23:34;101192.66;;;-5.14;93.35
63691;BME280;49837;57.280;27.070;2023-01-28T03:24:34;101194.88;;;-5.11;93.06
63691;BME280;49837;57.280;27.070;2023-01-28T03:25:30;101188.55;;;-5.37;92.2
63691;BME280;49837;57.280;27.070;2023-01-28T03:26:31;101192.05;;;-5.53;92.23
63691;BME280;49837;57.280;27.070;2023-01-28T03:27:46;101189.89;;;-5.48;92.42
63691;BME280;49837;57.280;27.070;2023-01-28T03:28:38;101190.02;;;-5.46;92.66
63691;BME280;49837;57.280;27.070;2023-01-28T03:29:38;101186.21;;;-5.46;92.6
63691;BME280;49837;57.280;27.070;2023-01-28T03:30:52;101184.36;;;-5.44;92.6
63691;BME280;49837;57.280;27.070;2023-01-28T03:31:38;101189.64;;;-5.38;92.52
63691;BME280;49837;57.280;27.070;2023-01-28T03:32:40;101192.08;;;-5.35;92.43
63691;BME280;49837;57.280;27.070;2023-01-28T03:33:40;101190.53;;;-5.35;92.21
63691;BME280;49837;57.280;27.070;2023-01-28T03:34:40;101195.16;;;-5.33;92.36
63691;BME280;49837;57.280;27.070;2023-01-28T03:35:40;101192.69;;;-5.35;92.56
63691;BME280;49837;57.280;27.070;2023-01-28T03:36:41;101193.44;;;-5.33;92.64
63691;BME280;49837;57.280;27.070;2023-01-28T03:37:41;101192.18;;;-5.33;92.69
63691;BME280;49837;57.280;27.070;2023-01-28T03:38:41;101193.7;;;-5.35;93.04
63691;BME280;49837;57.280;27.070;2023-01-28T03:39:42;101189.62;;;-5.33;92.96
63691;BME280;49837;57.280;27.070;2023-01-28T03:42:48;101190.2;;;-5.28;92.69
63691;BME280;49837;57.280;27.070;2023-01-28T03:43:48;101192.84;;;-5.26;92.62
63691;BME280;49837;57.280;27.070;2023-01-28T03:44:49;101192.09;;;-5.28;92.78
63691;BME280;49837;57.280;27.070;2023-01-28T03:45:49;101194.97;;;-5.31;92.93
63691;BME280;49837;57.280;27.070;2023-01-28T03:46:49;101192.38;;;-5.27;93.03
63691;BME280;49837;57.280;27.070;2023-01-28T03:47:50;101194.44;;;-5.32;92.96
63691;BME280;49837;57.280;27.070;2023-01-28T03:48:50;101190.98;;;-5.32;93.27
63691;BME280;49837;57.280;27.070;2023-01-28T03:49:52;101195.47;;;-5.3;93.37
63691;BME280;49837;57.280;27.070;2023-01-28T03:50:52;101193.38;;;-5.32;93.19
63691;BME280;49837;57.280;27.070;2023-01-28T03:51:51;101196.97;;;-5.28;93.32
63691;BME280;49837;57.280;27.070;2023-01-28T03:52:52;101188.48;;;-5.27;93.25
63691;BME280;49837;57.280;27.070;2023-01-28T03:53:52;101185.38;;;-5.24;93.28
63691;BME280;49837;57.280;27.070;2023-01-28T03:54:53;101184.05;;;-5.23;93.3
63691;BME280;49837;57.280;27.070;2023-01-28T03:55:53;101182.75;;;-5.19;93.3
63691;BME280;49837;57.280;27.070;2023-01-28T03:56:53;101179.65;;;-5.2;93.23
63691;BME280;49837;57.280;27.070;2023-01-28T03:57:54;101181.48;;;-5.17;93.21
63691;BME280;49837;57.280;27.070;2023-01-28T03:58:54;101182.62;;;-5.19;93.4
63691;BME280;49837;57.280;27.070;2023-01-28T03:59:55;101179.76;;;-5.21;93.36
63691;BME280;49837;57.280;27.070;2023-01-28T04:00:55;101179.98;;;-5.23;93.31
63691;BME280;49837;57.280;27.070;2023-01-28T04:01:55;101179.89;;;-5.2;93.44
63691;BME280;49837;57.280;27.070;2023-01-28T04:02:56;101181.83;;;-5.22;93.39
63691;BME280;49837;57.280;27.070;2023-01-28T04:03:56;101182.53;;;-5.27;93.32
63691;BME280;49837;57.280;27.070;2023-01-28T04:04:57;101183.81;;;-5.23;93.34
63691;BME280;49837;57.280;27.070;2023-01-28T04:05:59;101181.87;;;-5.18;93.27
63691;BME280;49837;57.280;27.070;2023-01-28T04:06:57;101184.99;;;-5.19;93.17
63691;BME280;49837;57.280;27.070;2023-01-28T04:07:58;101183.88;;;-5.13;93.11
63691;BME280;49837;57.280;27.070;2023-01-28T04:08:58;101182.91;;;-5.11;92.97
63691;BME280;49837;57.280;27.070;2023-01-28T04:09:59;101182.0;;;-5.17;92.81
63691;BME280;49837;57.280;27.070;2023-01-28T04:10:59;101182.77;;;-5.21;93.19
63691;BME280;49837;57.280;27.070;2023-01-28T04:11:59;101179.48;;;-5.2;93.33
63691;BME280;49837;57.280;27.070;2023-01-28T04:13:00;101181.99;;;-5.22;93.45
63691;BME280;49837;57.280;27.070;2023-01-28T04:14:00;101183.59;;;-5.21;93.55
63691;BME280;49837;57.280;27.070;2023-01-28T04:15:01;101183.62;;;-5.2;93.64
63691;BME280;49837;57.280;27.070;2023-01-28T04:16:01;101183.17;;;-5.21;93.64
63691;BME280;49837;57.280;27.070;2023-01-28T04:17:02;101185.24;;;-5.18;93.53
63691;BME280;49837;57.280;27.070;2023-01-28T04:18:02;101188.12;;;-5.23;93.3
63691;BME280;49837;57.280;27.070;2023-01-28T04:19:02;101191.81;;;-5.27;93.38
63691;BME280;49837;57.280;27.070;2023-01-28T04:20:03;101190.96;;;-5.23;93.37
63691;BME280;49837;57.280;27.070;2023-01-28T04:21:04;101195.06;;;-5.27;93.32
63691;BME280;49837;57.280;27.070;2023-01-28T04:22:06;101193.7;;;-5.31;93.29
63691;BME280;49837;57.280;27.070;2023-01-28T04:23:05;101194.08;;;-5.38;93.38
63691;BME280;49837;57.280;27.070;2023-01-28T04:24:05;101196.06;;;-5.35;93.53
63691;BME280;49837;57.280;27.070;2023-01-28T04:25:06;101197.25;;;-5.34;93.5
63691;BME280;49837;57.280;27.070;2023-01-28T04:26:06;101199.59;;;-5.32;93.4
63691;BME280;49837;57.280;27.070;2023-01-28T04:27:06;101197.55;;;-5.33;93.23
63691;BME280;49837;57.280;27.070;2023-01-28T04:28:07;101198.24;;;-5.33;92.91
63691;BME280;49837;57.280;27.070;2023-01-28T04:29:07;101196.2;;;-5.34;93.02
63691;BME280;49837;57.280;27.070;2023-01-28T04:30:08;101191.97;;;-5.3;93.31
63691;BME280;49837;57.280;27.070;2023-01-28T04:31:08;101185.97;;;-5.25;93.55
63691;BME280;49837;57.280;27.070;2023-01-28T04:32:08;101189.55;;;-5.25;93.45
63691;BME280;49837;57.280;27.070;2023-01-28T04:33:09;101189.16;;;-5.25;93.3
63691;BME280;49837;57.280;27.070;2023-01-28T04:34:10;101189.69;;;-5.24;93.52
63691;BME280;49837;57.280;27.070;2023-01-28T04:35:10;101183.98;;;-5.21;93.62
63691;BME280;49837;57.280;27.070;2023-01-28T04:36:11;101179.33;;;-5.26;93.55
63691;BME280;49837;57.280;27.070;2023-01-28T04:37:11;101178.8;;;-5.27;93.49
63691;BME280;49837;57.280;27.070;2023-01-28T04:38:11;101175.71;;;-5.27;93.44
63691;BME280;49837;57.280;27.070;2023-01-28T04:39:12;101176.05;;;-5.25;93.41
63691;BME280;49837;57.280;27.070;2023-01-28T04:40:12;101176.58;;;-5.26;93.18
63691;BME280;49837;57.280;27.070;2023-01-28T04:41:13;101174.58;;;-5.27;92.91
63691;BME280;49837;57.280;27.070;2023-01-28T04:42:13;101177.41;;;-5.27;92.99
63691;BME280;49837;57.280;27.070;2023-01-28T04:43:13;101179.47;;;-5.25;93.22
63691;BME280;49837;57.280;27.070;2023-01-28T04:44:14;101175.12;;;-5.29;93.26
63691;BME280;49837;57.280;27.070;2023-01-28T04:45:14;101176.08;;;-5.3;93.15
63691;BME280;49837;57.280;27.070;2023-01-28T04:46:15;101171.39;;;-5.31;93.15
63691;BME280;49837;57.280;27.070;2023-01-28T04:47:15;101175.84;;;-5.29;93.21
63691;BME280;49837;57.280;27.070;2023-01-28T04:48:16;101173.23;;;-5.23;93.21
63691;BME280;49837;57.280;27.070;2023-01-28T04:49:16;101172.61;;;-5.2;93.18
63691;BME280;49837;57.280;27.070;2023-01-28T04:50:16;101175.08;;;-5.25;93.03
63691;BME280;49837;57.280;27.070;2023-01-28T04:51:16;101174.06;;;-5.21;93.15
63691;BME280;49837;57.280;27.070;2023-01-28T04:52:17;101173.23;;;-5.16;92.87
63691;BME280;49837;57.280;27.070;2023-01-28T04:53:17;101172.56;;;-5.25;92.75
63691;BME280;49837;57.280;27.070;2023-01-28T04:54:18;101169.06;;;-5.32;92.96
63691;BME280;49837;57.280;27.070;2023-01-28T04:55:18;101171.37;;;-5.36;93.3
63691;BME280;49837;57.280;27.070;2023-01-28T04:56:18;101170.2;;;-5.35;93.58
63691;BME280;49837;57.280;27.070;2023-01-28T04:57:19;101172.56;;;-5.31;93.7
63691;BME280;49837;57.280;27.070;2023-01-28T04:58:19;101171.31;;;-5.3;93.52
63691;BME280;49837;57.280;27.070;2023-01-28T04:59:20;101173.88;;;-5.28;93.39
63691;BME280;49837;57.280;27.070;2023-01-28T05:00:20;101170.19;;;-5.22;93.3
63691;BME280;49837;57.280;27.070;2023-01-28T05:01:20;101168.12;;;-5.21;93.25
63691;BME280;49837;57.280;27.070;2023-01-28T05:02:21;101166.54;;;-5.22;93.28
63691;BME280;49837;57.280;27.070;2023-01-28T05:03:22;101163.61;;;-5.25;93.43
63691;BME280;49837;57.280;27.070;2023-01-28T05:04:22;101165.55;;;-5.22;93.38
63691;BME280;49837;57.280;27.070;2023-01-28T05:05:22;101169.08;;;-5.19;93.2
63691;BME280;49837;57.280;27.070;2023-01-28T05:06:23;101166.69;;;-5.22;93.28
63691;BME280;49837;57.280;27.070;2023-01-28T05:07:23;101167.47;;;-5.26;93.35
63691;BME280;49837;57.280;27.070;2023-01-28T05:08:23;101162.92;;;-5.21;93.57
63691;BME280;49837;57.280;27.070;2023-01-28T05:09:24;101168.91;;;-5.2;93.52
63691;BME280;49837;57.280;27.070;2023-01-28T05:10:25;101165.36;;;-5.24;93.46
63691;BME280;49837;57.280;27.070;2023-01-28T05:11:25;101169.42;;;-5.26;93.43
63691;BME280;49837;57.280;27.070;2023-01-28T05:12:25;101168.54;;;-5.24;93.33
63691;BME280;49837;57.280;27.070;2023-01-28T05:13:25;101165.77;;;-5.24;93.28
63691;BME280;49837;57.280;27.070;2023-01-28T05:14:26;101166.05;;;-5.22;93.29
63691;BME280;49837;57.280;27.070;2023-01-28T05:15:26;101156.58;;;-5.21;92.98
63691;BME280;49837;57.280;27.070;2023-01-28T05:16:27;101158.16;;;-5.25;92.74
63691;BME280;49837;57.280;27.070;2023-01-28T05:17:27;101157.12;;;-5.26;92.9
63691;BME280;49837;57.280;27.070;2023-01-28T05:18:28;101156.84;;;-5.27;93.08
63691;BME280;49837;57.280;27.070;2023-01-28T05:19:28;101155.53;;;-5.27;93.39
63691;BME280;49837;57.280;27.070;2023-01-28T05:20:28;101155.45;;;-5.27;93.42
63691;BME280;49837;57.280;27.070;2023-01-28T05:21:29;101150.38;;;-5.31;93.14
63691;BME280;49837;57.280;27.070;2023-01-28T05:22:29;101152.79;;;-5.25;93.42
63691;BME280;49837;57.280;27.070;2023-01-28T05:23:29;101152.96;;;-5.17;93.62
63691;BME280;49837;57.280;27.070;2023-01-28T05:24:30;101151.66;;;-5.22;93.37
63691;BME280;49837;57.280;27.070;2023-01-28T05:25:30;101150.7;;;-5.31;93.26
63691;BME280;49837;57.280;27.070;2023-01-28T05:26:31;101145.02;;;-5.36;92.88
63691;BME280;49837;57.280;27.070;2023-01-28T05:27:32;101144.19;;;-5.38;93.01
63691;BME280;49837;57.280;27.070;2023-01-28T05:28:31;101142.3;;;-5.36;93.23
63691;BME280;49837;57.280;27.070;2023-01-28T05:29:32;101144.8;;;-5.34;93.24
63691;BME280;49837;57.280;27.070;2023-01-28T05:30:32;101146.3;;;-5.28;93.39
63691;BME280;49837;57.280;27.070;2023-01-28T05:31:33;101144.52;;;-5.26;93.36
63691;BME280;49837;57.280;27.070;2023-01-28T05:32:33;101145.08;;;-5.25;93.23
63691;BME280;49837;57.280;27.070;2023-01-28T05:33:33;101145.62;;;-5.24;93.03
63691;BME280;49837;57.280;27.070;2023-01-28T05:34:34;101141.16;;;-5.25;93.12
63691;BME280;49837;57.280;27.070;2023-01-28T05:35:34;101141.07;;;-5.27;93.06
63691;BME280;49837;57.280;27.070;2023-01-28T05:36:35;101142.81;;;-5.26;92.96
63691;BME280;49837;57.280;27.070;2023-01-28T05:37:35;101137.77;;;-5.26;92.86
63691;BME280;49837;57.280;27.070;2023-01-28T05:38:36;101138.22;;;-5.27;92.92
63691;BME280;49837;57.280;27.070;2023-01-28T05:39:36;101138.92;;;-5.26;93.16
63691;BME280;49837;57.280;27.070;2023-01-28T05:40:36;101139.72;;;-5.28;93.16
63691;BME280;49837;57.280;27.070;2023-01-28T05:41:37;101136.27;;;-5.27;92.92
63691;BME280;49837;57.280;27.070;2023-01-28T05:42:37;101140.29;;;-5.23;92.83
63691;BME280;49837;57.280;27.070;2023-01-28T05:43:37;101141.61;;;-5.18;92.59
63691;BME280;49837;57.280;27.070;2023-01-28T05:44:38;101140.46;;;-5.18;92.44
63691;BME280;49837;57.280;27.070;2023-01-28T05:45:38;101145.85;;;-5.17;92.48
63691;BME280;49837;57.280;27.070;2023-01-28T05:46:39;101142.86;;;-5.19;92.5
63691;BME280;49837;57.280;27.070;2023-01-28T05:47:39;101143.88;;;-5.19;92.63
63691;BME280;49837;57.280;27.070;2023-01-28T05:48:39;101142.16;;;-5.15;92.91
63691;BME280;49837;57.280;27.070;2023-01-28T05:49:40;101144.0;;;-5.11;92.98
63691;BME280;49837;57.280;27.070;2023-01-28T05:50:40;101139.41;;;-5.21;92.97
63691;BME280;49837;57.280;27.070;2023-01-28T05:51:41;101140.9;;;-5.24;93.12